Time;durP1;ratioP1;P1;durP2;ratioP2;P2;SDS_P1;SDS_P2;PMS_P1;PMS_P2;Temp;Humidity;BMP_temperature;BMP_pressure;BME280_temperature;BME280_humidity;BME280_pressure;Samples;Min_cycle;Max_cycle;Signal;HPM_P1;HPM_P2
2022/11/04 00:01:04;;;;;;;0.50;0.50;;;;;9.50;95021.00;;;;5076603;28;20312;-54
2022/11/04 00:03:31;;;;;;;0.50;0.50;;;;;9.30;95013.00;;;;5094540;28;20199;-53
2022/11/04 00:06:01;;;;;;;0.60;0.60;;;;;9.40;95014.00;;;;5094416;28;20623;-53
2022/11/04 00:08:27;;;;;;;0.60;0.60;;;;;9.20;95017.00;;;;5094620;28;20207;-53
2022/11/04 00:13:39;;;;;;;0.60;0.60;;;;;9.20;95041.00;;;;5094474;28;20288;-53
2022/11/04 00:18:55;;;;;;;0.50;0.50;;;;;9.30;95050.00;;;;5076414;28;20250;-53
2022/11/04 00:29:42;;;;;;;0.77;0.77;;;;;9.20;95065.00;;;;5094286;28;20623;-55
2022/11/04 00:34:59;;;;;;;0.60;0.60;;;;;9.40;95053.00;;;;5068179;28;20584;-54
2022/11/04 00:37:28;;;;;;;0.90;0.90;;;;;9.30;95049.00;;;;5094092;28;20229;-55
2022/11/04 00:39:54;;;;;;;0.50;0.50;;;;;9.40;95050.00;;;;5094060;28;20206;-53
2022/11/04 00:42:21;;;;;;;0.53;0.53;;;;;9.50;95059.00;;;;5093906;28;20360;-53
2022/11/04 00:44:50;;;;;;;0.87;0.87;;;;;9.50;95058.00;;;;5093901;28;20190;-53
2022/11/04 00:47:17;;;;;;;0.60;0.60;;;;;9.50;95055.00;;;;5093958;28;20270;-55
2022/11/04 00:49:44;;;;;;;0.60;0.60;;;;;9.30;95056.00;;;;5093837;28;20234;-54
2022/11/04 00:52:14;;;;;;;0.77;0.77;;;;;9.30;95058.00;;;;5076080;28;20199;-53
2022/11/04 00:54:41;;;;;;;0.90;0.90;;;;;9.30;95053.00;;;;5093856;28;20187;-53
2022/11/04 00:57:09;;;;;;;0.57;0.57;;;;;9.30;95058.00;;;;5093906;28;20194;-53
2022/11/04 00:59:36;;;;;;;0.60;0.60;;;;;9.30;95055.00;;;;5093830;28;20206;-54
2022/11/04 01:02:03;;;;;;;0.60;0.60;;;;;9.20;95053.00;;;;5075920;28;20610;-55
2022/11/04 01:04:32;;;;;;;0.67;0.67;;;;;9.20;95058.00;;;;5075945;28;20507;-55
2022/11/04 01:06:59;;;;;;;0.50;0.50;;;;;9.30;95069.00;;;;5075901;28;20491;-55
2022/11/04 01:09:26;;;;;;;0.90;0.90;;;;;9.30;95069.00;;;;5093618;28;20210;-53
2022/11/04 01:11:55;;;;;;;0.63;0.63;;;;;9.20;95055.00;;;;5093684;28;20199;-56
2022/11/04 01:14:23;;;;;;;0.60;0.60;;;;;9.20;95052.00;;;;5093603;28;20541;-55
2022/11/04 01:16:50;;;;;;;0.50;0.50;;;;;9.20;95054.00;;;;5093611;28;20190;-54
2022/11/04 01:19:17;;;;;;;0.60;0.60;;;;;9.20;95045.00;;;;5093502;28;20198;-54
2022/11/04 01:21:43;;;;;;;0.50;0.50;;;;;9.20;95052.00;;;;5094957;28;20222;-58
2022/11/04 01:24:10;;;;;;;0.60;0.60;;;;;9.10;95052.00;;;;5097321;28;20191;-55
2022/11/04 01:26:38;;;;;;;0.50;0.50;;;;;9.10;95063.00;;;;5096991;28;20279;-54
2022/11/04 01:29:04;;;;;;;0.50;0.50;;;;;9.10;95075.00;;;;5097034;28;20204;-54
2022/11/04 01:31:31;;;;;;;0.70;0.70;;;;;9.00;95077.00;;;;5096930;28;20194;-53
2022/11/04 01:33:59;;;;;;;1.20;1.03;;;;;8.90;95070.00;;;;5079331;28;20209;-55
2022/11/04 01:36:27;;;;;;;0.60;0.60;;;;;8.80;95078.00;;;;5079112;28;20236;-53
2022/11/04 01:38:55;;;;;;;0.50;0.50;;;;;8.90;95060.00;;;;5096797;28;20230;-56
2022/11/04 01:41:24;;;;;;;0.70;0.70;;;;;8.90;95061.00;;;;5096916;28;20211;-55
2022/11/04 01:43:54;;;;;;;0.70;0.70;;;;;8.90;95063.00;;;;5079122;28;20654;-55
2022/11/04 01:46:27;;;;;;;0.60;0.60;;;;;8.70;95055.00;;;;5097001;28;20289;-55
2022/11/04 01:48:58;;;;;;;0.50;0.50;;;;;8.90;95064.00;;;;5096860;28;20194;-55
2022/11/04 01:51:26;;;;;;;0.50;0.50;;;;;8.90;95059.00;;;;5096930;28;20280;-53
2022/11/04 01:53:55;;;;;;;0.70;0.70;;;;;8.90;95051.00;;;;5096845;28;20198;-54
2022/11/04 01:56:27;;;;;;;0.77;0.77;;;;;8.90;95052.00;;;;5096782;28;20535;-54
2022/11/04 01:59:02;;;;;;;0.50;0.50;;;;;8.60;95046.00;;;;5078739;28;20199;-53
2022/11/04 02:01:31;;;;;;;0.50;0.50;;;;;8.70;95044.00;;;;5096637;28;20729;-53
2022/11/04 02:04:24;;;;;;;0.60;0.60;;;;;8.80;95036.00;;;;5096585;28;20212;-54
2022/11/04 02:06:47;;;;;;;0.50;0.50;;;;;8.70;95047.00;;;;5096300;28;20214;-54
2022/11/04 02:09:16;;;;;;;0.50;0.50;;;;;8.80;95041.00;;;;5096457;28;20202;-54
2022/11/04 02:14:29;;;;;;;0.50;0.50;;;;;8.50;95046.00;;;;5096238;28;20207;-53
2022/11/04 02:17:06;;;;;;;0.70;0.70;;;;;8.60;95053.00;;;;5078380;28;20198;-54
2022/11/04 02:19:52;;;;;;;0.80;0.80;;;;;8.50;95046.00;;;;5096264;28;20214;-53
2022/11/04 02:22:48;;;;;;;0.60;0.60;;;;;8.40;95055.00;;;;5078478;28;20519;-54
2022/11/04 02:25:36;;;;;;;12.00;0.87;;;;;8.30;95059.00;;;;5096214;28;20205;-54
2022/11/04 02:28:26;;;;;;;0.50;0.50;;;;;8.20;95055.00;;;;5096049;28;20195;-54
2022/11/04 02:31:00;;;;;;;2.17;1.97;;;;;8.20;95030.00;;;;5096120;28;20210;-54
2022/11/04 02:33:33;;;;;;;0.87;0.87;;;;;8.20;95022.00;;;;5095168;28;20293;-53
2022/11/04 02:36:04;;;;;;;0.60;0.60;;;;;8.20;95029.00;;;;5078183;28;20202;-55
2022/11/04 02:38:37;;;;;;;0.60;0.60;;;;;8.20;95040.00;;;;5096179;28;20214;-57
2022/11/04 02:41:12;;;;;;;0.60;0.60;;;;;8.20;95028.00;;;;5095909;28;20658;-58
2022/11/04 02:43:51;;;;;;;0.60;0.60;;;;;8.00;95040.00;;;;5096105;28;20202;-55
2022/11/04 02:46:23;;;;;;;0.60;0.60;;;;;8.10;95054.00;;;;5095940;28;20645;-55
2022/11/04 02:48:59;;;;;;;0.60;0.60;;;;;8.10;95053.00;;;;5095865;28;20202;-53
2022/11/04 02:51:31;;;;;;;0.60;0.60;;;;;8.10;95044.00;;;;5095703;28;20246;-55
2022/11/04 02:54:04;;;;;;;0.40;0.40;;;;;8.10;95029.00;;;;5078014;28;20194;-55
2022/11/04 02:56:35;;;;;;;1.00;1.00;;;;;8.10;95032.00;;;;5078299;28;20218;-55
2022/11/04 02:59:05;;;;;;;0.67;0.67;;;;;8.30;95028.00;;;;5095772;28;20208;-53
2022/11/04 03:01:36;;;;;;;0.50;0.50;;;;;8.50;95011.00;;;;5095575;28;20219;-55
2022/11/04 03:04:11;;;;;;;0.50;0.50;;;;;8.40;95011.00;;;;5095519;28;20210;-53
2022/11/04 03:06:38;;;;;;;0.90;0.90;;;;;8.30;95024.00;;;;5095583;28;20205;-53
2022/11/04 03:09:06;;;;;;;0.50;0.50;;;;;8.00;95037.00;;;;5095703;28;20623;-53
2022/11/04 03:11:37;;;;;;;0.60;0.60;;;;;8.00;95039.00;;;;5095443;28;20336;-53
2022/11/04 03:14:07;;;;;;;0.77;0.77;;;;;8.00;95036.00;;;;5077705;28;20219;-53
2022/11/04 03:16:38;;;;;;;0.70;0.70;;;;;8.00;95023.00;;;;5095339;28;20216;-52
2022/11/04 03:19:12;;;;;;;0.60;0.60;;;;;7.90;95016.00;;;;5095398;28;20224;-53
2022/11/04 03:21:45;;;;;;;1.40;0.83;;;;;7.90;95023.00;;;;5095184;28;20223;-53
2022/11/04 03:24:11;;;;;;;0.90;0.90;;;;;7.80;95044.00;;;;5077397;28;20254;-53
2022/11/04 03:26:46;;;;;;;0.60;0.60;;;;;7.90;95045.00;;;;5077508;28;20198;-54
2022/11/04 03:29:24;;;;;;;0.70;0.70;;;;;8.00;95045.00;;;;5077233;28;20589;-53
2022/11/04 03:32:04;;;;;;;1.00;1.00;;;;;7.90;95041.00;;;;5095186;28;20202;-53
2022/11/04 03:34:32;;;;;;;0.60;0.60;;;;;7.90;95049.00;;;;5095109;28;20195;-53
2022/11/04 03:36:59;;;;;;;0.60;0.60;;;;;7.60;95053.00;;;;5095021;28;20269;-53
2022/11/04 03:39:26;;;;;;;1.43;1.33;;;;;7.40;95045.00;;;;5076998;28;20599;-54
2022/11/04 03:41:55;;;;;;;0.50;0.50;;;;;7.50;95049.00;;;;5076983;28;20234;-53
2022/11/04 03:44:23;;;;;;;0.60;0.60;;;;;7.40;95062.00;;;;5094902;28;20187;-54
2022/11/04 03:46:50;;;;;;;0.50;0.50;;;;;7.50;95074.00;;;;5094721;28;20229;-58
2022/11/04 03:49:19;;;;;;;0.93;0.93;;;;;7.60;95074.00;;;;5094842;28;20638;-62
2022/11/04 03:51:46;;;;;;;1.80;1.70;;;;;7.60;95063.00;;;;5094795;28;20198;-54
2022/11/04 03:54:15;;;;;;;0.57;0.57;;;;;7.60;95050.00;;;;5094860;28;20213;-55
2022/11/04 03:57:20;;;;;;;0.97;0.93;;;;;7.80;95048.00;;;;5076873;28;20206;-53
2022/11/04 04:00:09;;;;;;;1.00;1.00;;;;;7.70;95067.00;;;;5094844;28;20285;-54
2022/11/04 04:02:57;;;;;;;0.60;0.60;;;;;7.50;95065.00;;;;5076902;28;20658;-53
2022/11/04 04:05:28;;;;;;;3.00;1.17;;;;;7.60;95058.00;;;;5094627;28;20503;-52
2022/11/04 04:08:06;;;;;;;0.50;0.50;;;;;7.60;95065.00;;;;5094535;28;20201;-53
2022/11/04 04:10:40;;;;;;;0.60;0.60;;;;;7.60;95068.00;;;;5094432;28;20537;-54
2022/11/04 04:13:17;;;;;;;0.60;0.60;;;;;7.60;95069.00;;;;5094487;28;20202;-59
2022/11/04 04:15:51;;;;;;;0.70;0.70;;;;;7.60;95061.00;;;;5094445;28;20284;-55
2022/11/04 04:18:25;;;;;;;1.67;1.50;;;;;7.60;95061.00;;;;5094428;28;20208;-53
2022/11/04 04:20:58;;;;;;;0.50;0.50;;;;;7.70;95059.00;;;;5094345;28;20237;-54
2022/11/04 04:29:01;;;;;;;0.60;0.60;;;;;7.60;95077.00;;;;5076450;28;20202;-52
2022/11/04 04:31:48;;;;;;;0.60;0.60;;;;;7.60;95079.00;;;;5094047;28;20222;-54
2022/11/04 04:34:16;;;;;;;0.60;0.60;;;;;7.50;95075.00;;;;5094148;28;20206;-53
2022/11/04 04:36:48;;;;;;;0.50;0.50;;;;;7.50;95085.00;;;;5093985;28;20561;-53
2022/11/04 04:44:59;;;;;;;15.00;1.00;;;;;7.40;95078.00;;;;5094083;28;20187;-53
2022/11/04 04:47:34;;;;;;;2.03;0.83;;;;;7.40;95084.00;;;;5094015;28;20611;-53
2022/11/04 04:50:01;;;;;;;0.60;0.60;;;;;7.40;95075.00;;;;5094003;28;20202;-53
2022/11/04 04:52:31;;;;;;;0.67;0.67;;;;;7.30;95070.00;;;;5093879;28;20187;-54
2022/11/04 04:54:58;;;;;;;0.70;0.70;;;;;7.40;95058.00;;;;5076248;28;20218;-53
2022/11/04 04:57:25;;;;;;;0.60;0.60;;;;;7.40;95048.00;;;;5093248;28;20228;-53
2022/11/04 04:59:54;;;;;;;0.60;0.60;;;;;7.40;95038.00;;;;5093647;28;20279;-54
2022/11/04 05:02:24;;;;;;;0.50;0.50;;;;;7.40;95032.00;;;;5075782;28;20223;-53
2022/11/04 05:04:51;;;;;;;0.70;0.70;;;;;7.40;95022.00;;;;5093613;28;20282;-53
2022/11/04 05:07:17;;;;;;;0.60;0.60;;;;;7.40;95014.00;;;;5093682;28;20210;-53
2022/11/04 05:09:45;;;;;;;0.60;0.60;;;;;7.40;95011.00;;;;5093613;28;20226;-53
2022/11/04 05:12:14;;;;;;;1.13;1.10;;;;;7.40;95000.00;;;;5093662;28;20647;-53
2022/11/04 05:14:40;;;;;;;0.60;0.60;;;;;7.40;95000.00;;;;5093298;28;20233;-52
2022/11/04 05:17:07;;;;;;;0.63;0.63;;;;;7.30;94991.00;;;;5093453;28;20519;-53
2022/11/04 05:19:36;;;;;;;0.60;0.60;;;;;7.20;94988.00;;;;5093502;28;20226;-53
2022/11/04 05:22:04;;;;;;;0.50;0.50;;;;;7.30;94992.00;;;;5093514;28;20613;-53
2022/11/04 05:24:31;;;;;;;0.90;0.90;;;;;7.20;94990.00;;;;5093336;28;20233;-53
2022/11/04 05:26:58;;;;;;;0.60;0.60;;;;;7.10;94983.00;;;;5093576;28;20690;-53
2022/11/04 05:29:25;;;;;;;0.60;0.60;;;;;7.10;94993.00;;;;5075577;28;20244;-53
2022/11/04 05:31:52;;;;;;;0.60;0.60;;;;;7.00;94999.00;;;;5093475;28;20251;-56
2022/11/04 05:34:21;;;;;;;0.70;0.70;;;;;7.00;94994.00;;;;5075501;28;20222;-53
2022/11/04 05:36:48;;;;;;;0.73;0.73;;;;;6.90;95013.00;;;;5075386;28;20495;-53
2022/11/04 05:39:14;;;;;;;0.50;0.50;;;;;6.90;95028.00;;;;5093445;28;20215;-53
2022/11/04 05:41:41;;;;;;;0.60;0.60;;;;;6.80;95036.00;;;;5093201;28;20230;-54
2022/11/04 05:44:09;;;;;;;0.60;0.60;;;;;6.80;95039.00;;;;5075301;28;20202;-53
2022/11/04 05:46:38;;;;;;;1.10;1.03;;;;;6.80;95042.00;;;;5075436;28;20605;-53
2022/11/04 05:49:05;;;;;;;0.60;0.60;;;;;6.80;95045.00;;;;5093153;28;20210;-53
2022/11/04 05:51:32;;;;;;;1.13;1.13;;;;;6.80;95043.00;;;;5093321;28;20225;-54
2022/11/04 05:53:59;;;;;;;2.77;2.47;;;;;6.80;95042.00;;;;5093366;28;20611;-59
2022/11/04 05:56:26;;;;;;;0.60;0.60;;;;;6.80;95038.00;;;;5093219;28;20198;-54
2022/11/04 05:58:54;;;;;;;0.70;0.70;;;;;6.80;95030.00;;;;5093270;28;20658;-53
2022/11/04 06:01:27;;;;;;;0.60;0.60;;;;;6.90;95015.00;;;;5075361;28;20203;-53
2022/11/04 06:03:55;;;;;;;0.70;0.70;;;;;6.90;95021.00;;;;5093167;28;20194;-53
2022/11/04 06:06:23;;;;;;;0.60;0.60;;;;;6.90;95015.00;;;;5075284;28;20696;-53
2022/11/04 06:08:52;;;;;;;0.77;0.77;;;;;6.90;95010.00;;;;5094468;28;20464;-53
2022/11/04 06:11:20;;;;;;;1.13;1.10;;;;;6.90;95012.00;;;;5096366;28;20211;-53
2022/11/04 06:13:47;;;;;;;0.60;0.60;;;;;6.80;95007.00;;;;5078548;28;20634;-54
2022/11/04 06:16:14;;;;;;;0.73;0.73;;;;;6.80;95009.00;;;;5096324;28;20205;-53
2022/11/04 06:18:42;;;;;;;0.60;0.60;;;;;6.80;95012.00;;;;5096276;28;20204;-53
2022/11/04 06:21:20;;;;;;;0.90;0.90;;;;;6.70;95009.00;;;;5096188;28;20254;-53
2022/11/04 06:23:47;;;;;;;0.57;0.57;;;;;6.70;95010.00;;;;5096301;28;20188;-54
2022/11/04 06:26:15;;;;;;;0.50;0.50;;;;;6.70;95012.00;;;;5096349;28;20263;-55
2022/11/04 06:28:42;;;;;;;0.60;0.60;;;;;6.70;95022.00;;;;5096308;28;20191;-53
2022/11/04 06:31:10;;;;;;;0.70;0.70;;;;;6.70;95036.00;;;;5096098;28;20670;-55
2022/11/04 06:33:36;;;;;;;0.60;0.60;;;;;6.60;95048.00;;;;5096296;28;20630;-53
2022/11/04 06:36:06;;;;;;;0.80;0.80;;;;;6.70;95049.00;;;;5095928;28;20221;-53
2022/11/04 06:38:35;;;;;;;6.50;0.80;;;;;6.60;95047.00;;;;5095951;28;20202;-53
2022/11/04 06:41:03;;;;;;;0.70;0.70;;;;;6.60;95057.00;;;;5095761;28;20224;-53
2022/11/04 06:43:30;;;;;;;0.73;0.73;;;;;6.70;95060.00;;;;5077930;28;20222;-53
2022/11/04 06:45:58;;;;;;;0.80;0.80;;;;;6.70;95061.00;;;;5077780;28;20278;-55
2022/11/04 06:48:25;;;;;;;0.80;0.80;;;;;6.70;95052.00;;;;5095549;28;20193;-55
2022/11/04 06:50:54;;;;;;;0.77;0.77;;;;;6.70;95056.00;;;;5095694;28;20219;-53
2022/11/04 06:53:21;;;;;;;0.80;0.80;;;;;6.70;95063.00;;;;5095793;28;20201;-53
2022/11/04 06:55:48;;;;;;;0.60;0.60;;;;;6.70;95066.00;;;;5077870;28;20232;-53
2022/11/04 06:58:15;;;;;;;1.07;1.07;;;;;6.60;95070.00;;;;5095567;28;20202;-53
2022/11/04 07:00:42;;;;;;;0.50;0.50;;;;;6.70;95070.00;;;;5095417;28;20229;-53
2022/11/04 07:03:09;;;;;;;1.17;1.17;;;;;6.80;95070.00;;;;5095380;28;20214;-60
2022/11/04 07:05:36;;;;;;;1.47;1.37;;;;;6.80;95070.00;;;;5095402;28;20280;-54
2022/11/04 07:08:03;;;;;;;0.77;0.77;;;;;6.80;95069.00;;;;5077743;28;20518;-54
2022/11/04 07:10:31;;;;;;;1.07;1.07;;;;;6.90;95059.00;;;;5095437;28;20222;-54
2022/11/04 07:12:58;;;;;;;1.23;1.23;;;;;6.90;95055.00;;;;5095621;28;20263;-56
2022/11/04 07:15:24;;;;;;;0.60;0.60;;;;;7.00;95054.00;;;;5077500;28;20210;-56
2022/11/04 07:17:51;;;;;;;0.60;0.60;;;;;7.10;95047.00;;;;5095592;28;20297;-55
2022/11/04 07:20:18;;;;;;;0.90;0.90;;;;;7.10;95046.00;;;;5095355;28;20194;-58
2022/11/04 07:22:45;;;;;;;0.73;0.73;;;;;7.10;95044.00;;;;5095632;28;20698;-54
2022/11/04 07:25:12;;;;;;;3.83;1.63;;;;;7.20;95045.00;;;;5095456;28;20202;-56
2022/11/04 07:27:39;;;;;;;0.90;0.90;;;;;7.10;95046.00;;;;5095477;28;20227;-56
2022/11/04 07:30:07;;;;;;;0.90;0.90;;;;;7.00;95052.00;;;;5095331;28;20218;-57
2022/11/04 07:32:34;;;;;;;0.70;0.70;;;;;7.10;95045.00;;;;5095265;28;20303;-55
2022/11/04 07:35:01;;;;;;;0.60;0.60;;;;;7.10;95037.00;;;;5095186;28;20199;-55
2022/11/04 07:37:28;;;;;;;0.50;0.50;;;;;7.20;95043.00;;;;5095193;28;20257;-57
2022/11/04 07:39:55;;;;;;;0.60;0.60;;;;;7.30;95039.00;;;;5095106;28;20805;-56
2022/11/04 07:42:22;;;;;;;0.53;0.53;;;;;7.30;95035.00;;;;5094784;28;20245;-53
2022/11/04 07:44:49;;;;;;;0.90;0.90;;;;;7.40;95028.00;;;;5094858;28;20546;-53
2022/11/04 07:47:16;;;;;;;1.03;0.90;;;;;7.40;95025.00;;;;5094874;28;20194;-55
2022/11/04 07:49:43;;;;;;;0.70;0.70;;;;;7.50;95024.00;;;;5094671;28;20274;-54
2022/11/04 07:52:10;;;;;;;0.60;0.60;;;;;7.60;95023.00;;;;5094761;28;20301;-54
2022/11/04 07:54:37;;;;;;;1.23;1.13;;;;;7.70;95016.00;;;;5094689;28;20588;-53
2022/11/04 07:57:04;;;;;;;1.53;1.43;;;;;7.70;95023.00;;;;5076847;28;20657;-54
2022/11/04 07:59:33;;;;;;;0.90;0.90;;;;;7.80;95021.00;;;;5094595;28;20193;-53
2022/11/04 08:02:00;;;;;;;2.87;0.93;;;;;7.90;95017.00;;;;5094566;28;20222;-54
2022/11/04 08:04:28;;;;;;;0.53;0.53;;;;;7.90;95021.00;;;;5094493;28;20290;-53
2022/11/04 08:06:54;;;;;;;0.50;0.50;;;;;7.70;95019.00;;;;5094398;28;20305;-53
2022/11/04 08:09:22;;;;;;;0.60;0.60;;;;;7.70;95021.00;;;;5094500;28;20191;-53
2022/11/04 08:11:49;;;;;;;0.50;0.50;;;;;7.80;95017.00;;;;5094478;28;20312;-53
2022/11/04 08:14:16;;;;;;;0.70;0.70;;;;;7.90;95015.00;;;;5094468;28;20215;-54
2022/11/04 08:16:42;;;;;;;0.60;0.60;;;;;8.00;95010.00;;;;5094210;28;20223;-54
2022/11/04 08:19:10;;;;;;;0.73;0.73;;;;;8.20;95014.00;;;;5076519;28;20301;-53
2022/11/04 08:21:37;;;;;;;0.63;0.63;;;;;8.40;94998.00;;;;5076428;28;20639;-53
2022/11/04 08:24:04;;;;;;;0.60;0.60;;;;;8.50;94992.00;;;;5094399;28;20197;-55
2022/11/04 08:26:31;;;;;;;0.70;0.70;;;;;8.60;94999.00;;;;5094432;28;20202;-54
2022/11/04 08:29:00;;;;;;;0.50;0.50;;;;;8.70;94993.00;;;;5094381;28;20219;-53
2022/11/04 08:31:28;;;;;;;0.60;0.60;;;;;8.80;95006.00;;;;5093450;28;20653;-54
2022/11/04 08:33:55;;;;;;;0.60;0.60;;;;;8.70;95003.00;;;;5076280;28;20638;-56
2022/11/04 08:36:26;;;;;;;1.17;0.90;;;;;8.90;95015.00;;;;5094170;28;20496;-53
2022/11/04 08:38:53;;;;;;;1.00;1.00;;;;;8.90;95021.00;;;;5094045;28;20522;-59
2022/11/04 08:41:25;;;;;;;0.50;0.50;;;;;8.90;95009.00;;;;5094133;28;20300;-55
2022/11/04 08:43:52;;;;;;;4.03;1.90;;;;;8.80;95006.00;;;;5094345;28;20278;-54
2022/11/04 08:46:19;;;;;;;0.60;0.60;;;;;8.90;95007.00;;;;5094108;28;20615;-55
2022/11/04 08:48:46;;;;;;;0.77;0.77;;;;;8.90;95014.00;;;;5076052;28;20646;-56
2022/11/04 08:51:19;;;;;;;0.83;0.83;;;;;8.90;95015.00;;;;5093946;28;20244;-53
2022/11/04 08:53:47;;;;;;;0.50;0.50;;;;;8.70;95005.00;;;;5094051;28;20275;-54
2022/11/04 08:56:15;;;;;;;0.93;0.73;;;;;8.80;95005.00;;;;5093870;28;20235;-54
2022/11/04 08:58:45;;;;;;;0.50;0.50;;;;;8.90;95004.00;;;;5093961;28;20273;-54
2022/11/04 09:01:12;;;;;;;0.60;0.60;;;;;8.70;95003.00;;;;5093905;28;20202;-53
2022/11/04 09:03:40;;;;;;;0.70;0.70;;;;;8.80;95006.00;;;;5093723;28;20233;-54
2022/11/04 09:06:10;;;;;;;0.70;0.70;;;;;9.10;95006.00;;;;5093989;28;20248;-54
2022/11/04 09:08:38;;;;;;;1.63;1.53;;;;;9.10;95008.00;;;;5093759;28;20226;-54
2022/11/04 09:11:09;;;;;;;0.70;0.70;;;;;9.20;95027.00;;;;5093765;28;20210;-54
2022/11/04 09:13:38;;;;;;;0.60;0.60;;;;;9.10;95034.00;;;;5093645;28;20179;-55
2022/11/04 09:16:07;;;;;;;1.00;1.00;;;;;9.20;95029.00;;;;5093805;28;20213;-55
2022/11/04 09:18:34;;;;;;;0.60;0.60;;;;;9.20;95042.00;;;;5093829;28;20228;-57
2022/11/04 09:21:02;;;;;;;0.60;0.60;;;;;9.10;95046.00;;;;5093675;28;20223;-55
2022/11/04 09:23:29;;;;;;;0.70;0.70;;;;;9.10;95047.00;;;;5093750;28;20279;-55
2022/11/04 09:25:57;;;;;;;0.50;0.50;;;;;9.00;95051.00;;;;5093574;28;20211;-55
2022/11/04 09:28:25;;;;;;;0.60;0.60;;;;;9.10;95055.00;;;;5076114;28;20202;-54
2022/11/04 09:30:52;;;;;;;0.70;0.70;;;;;9.20;95064.00;;;;5093445;28;20241;-51
2022/11/04 09:33:19;;;;;;;0.50;0.50;;;;;9.30;95056.00;;;;5093568;28;20206;-50
2022/11/04 09:35:55;;;;;;;0.60;0.60;;;;;9.30;95058.00;;;;5093496;28;20278;-52
2022/11/04 09:38:21;;;;;;;0.80;0.80;;;;;9.50;95062.00;;;;5093618;28;20269;-52
2022/11/04 09:40:51;;;;;;;0.57;0.57;;;;;9.60;95054.00;;;;5093428;28;20191;-51
2022/11/04 09:43:36;;;;;;;0.70;0.70;;;;;9.60;95058.00;;;;5095361;28;20557;-53
2022/11/04 09:46:03;;;;;;;2.73;1.27;;;;;9.70;95057.00;;;;5096828;28;20190;-54
2022/11/04 09:48:34;;;;;;;0.77;0.77;;;;;9.70;95057.00;;;;5096664;28;20306;-53
2022/11/04 09:51:04;;;;;;;2.40;1.97;;;;;9.60;95051.00;;;;5096809;28;20194;-53
2022/11/04 09:53:38;;;;;;;0.63;0.63;;;;;9.80;95055.00;;;;5096842;28;20194;-53
2022/11/04 09:56:13;;;;;;;0.50;0.50;;;;;9.60;95046.00;;;;5078931;28;20599;-58
2022/11/04 09:58:41;;;;;;;0.60;0.60;;;;;9.80;95039.00;;;;5096825;28;20179;-53
2022/11/04 10:01:20;;;;;;;0.83;0.83;;;;;10.10;95041.00;;;;5096595;28;20238;-53
2022/11/04 10:03:58;;;;;;;1.90;0.80;;;;;10.10;95040.00;;;;5096403;28;20214;-53
2022/11/04 10:06:33;;;;;;;0.90;0.90;;;;;10.10;95038.00;;;;5096431;28;20248;-52
2022/11/04 10:09:23;;;;;;;0.50;0.50;;;;;10.00;95044.00;;;;5096749;28;20226;-53
2022/11/04 10:12:01;;;;;;;0.50;0.50;;;;;10.20;95034.00;;;;5096171;28;20273;-53
2022/11/04 10:14:44;;;;;;;0.60;0.60;;;;;10.40;95040.00;;;;5097108;28;20213;-54
2022/11/04 10:17:25;;;;;;;0.60;0.60;;;;;10.10;95030.00;;;;5078531;28;20298;-55
2022/11/04 10:20:07;;;;;;;0.60;0.60;;;;;10.10;95035.00;;;;5096422;28;20210;-55
2022/11/04 10:22:47;;;;;;;0.87;0.87;;;;;10.10;95030.00;;;;5096207;28;20223;-53
2022/11/04 10:25:20;;;;;;;0.60;0.60;;;;;10.20;95038.00;;;;5096409;28;20197;-55
2022/11/04 10:27:58;;;;;;;12.27;1.00;;;;;10.00;95029.00;;;;5096096;28;20178;-53
2022/11/04 10:30:28;;;;;;;0.60;0.60;;;;;9.60;95039.00;;;;5078253;28;20279;-53
2022/11/04 10:33:03;;;;;;;0.57;0.57;;;;;10.00;95023.00;;;;5096062;28;20237;-55
2022/11/04 10:35:36;;;;;;;0.50;0.50;;;;;10.20;95025.00;;;;5096066;28;20297;-53
2022/11/04 10:38:17;;;;;;;1.13;1.13;;;;;10.40;95030.00;;;;5096074;28;20191;-53
2022/11/04 10:40:48;;;;;;;1.03;1.03;;;;;10.50;95031.00;;;;5095851;28;20214;-53
2022/11/04 10:43:19;;;;;;;0.90;0.90;;;;;10.60;95029.00;;;;5078146;28;20214;-54
2022/11/04 10:46:00;;;;;;;0.70;0.70;;;;;10.10;95027.00;;;;5095648;28;20218;-53
2022/11/04 10:48:35;;;;;;;0.87;0.87;;;;;10.30;95034.00;;;;5095825;28;20214;-54
2022/11/04 10:51:02;;;;;;;0.83;0.83;;;10.50;79.00;9.80;95030.00;;;;5095738;28;20631;-53
2022/11/04 10:53:32;;;;;;;0.67;0.67;;;10.50;79.70;10.00;95033.00;;;;5094513;28;20260;-53
2022/11/04 10:56:10;;;;;;;0.70;0.70;;;10.60;81.80;10.30;95027.00;;;;5095271;28;20247;-53
2022/11/04 10:58:44;;;;;;;0.80;0.80;;;10.70;82.80;10.30;95022.00;;;;5095745;28;20238;-56
2022/11/04 11:01:27;;;;;;;0.50;0.50;;;10.90;81.80;10.60;95022.00;;;;5095849;28;20191;-54
2022/11/04 11:03:54;;;;;;;0.77;0.77;;;11.20;79.90;10.30;95012.00;;;;5077539;28;20283;-55
2022/11/04 11:06:28;;;;;;;0.70;0.70;;;;;10.20;95017.00;;;;5095655;28;20687;-60
2022/11/04 11:09:00;;;;;;;0.70;0.70;;;10.80;98.00;10.20;95014.00;;;;5095567;28;20222;-56
2022/11/04 11:11:44;;;;;;;0.63;0.63;;;10.80;81.30;9.90;95022.00;;;;5095800;28;20230;-57
2022/11/04 11:14:32;;;;;;;1.17;1.17;;;10.60;82.80;10.00;95013.00;;;;5094677;28;20226;-62
2022/11/04 11:17:20;;;;;;;0.67;0.67;;;10.60;83.50;9.80;95005.00;;;;5095893;28;20702;-55
2022/11/04 11:19:53;;;;;;;0.60;0.60;;;;;9.80;95016.00;;;;5095532;28;20244;-55
2022/11/04 11:22:36;;;;;;;0.70;0.70;;;10.40;84.00;9.60;95003.00;;;;5095324;28;20663;-54
2022/11/04 11:25:27;;;;;;;0.80;0.80;;;10.50;82.60;10.00;95010.00;;;;5095467;28;20665;-54
2022/11/04 11:27:58;;;;;;;0.83;0.83;;;10.60;83.60;10.10;94996.00;;;;5095476;28;20209;-56
2022/11/04 11:30:30;;;;;;;0.80;0.80;;;10.40;82.30;9.70;95005.00;;;;5095390;28;20684;-54
2022/11/04 11:33:02;;;;;;;0.70;0.70;;;10.40;84.10;9.70;94997.00;;;;5094282;28;20295;-55
2022/11/04 11:35:40;;;;;;;0.80;0.80;;;10.40;84.50;10.30;94986.00;;;;5095177;28;20529;-54
2022/11/04 11:38:18;;;;;;;0.60;0.60;;;10.80;83.50;10.40;94988.00;;;;5095342;28;20313;-54
2022/11/04 11:40:51;;;;;;;0.80;0.80;;;11.00;79.20;10.40;94978.00;;;;5095228;28;20211;-54
2022/11/04 11:43:26;;;;;;;0.83;0.83;;;11.00;81.20;10.70;94974.00;;;;5094921;28;20250;-53
2022/11/04 11:45:56;;;;;;;0.83;0.83;;;11.20;80.90;11.00;94971.00;;;;5095068;28;20222;-54
2022/11/04 11:48:31;;;;;;;0.70;0.70;;;11.40;76.60;11.20;94959.00;;;;5094825;28;20214;-54
2022/11/04 11:50:59;;;;;;;0.80;0.80;;;11.90;75.40;11.50;94968.00;;;;5095426;28;20190;-54
2022/11/04 11:53:29;;;;;;;0.50;0.50;;;12.30;73.40;12.10;94957.00;;;;5077131;28;20194;-52
2022/11/04 11:56:10;;;;;;;0.60;0.60;;;12.40;74.20;12.30;94954.00;;;;5094271;28;20222;-53
2022/11/04 11:58:45;;;;;;;0.50;0.50;;;12.80;68.10;12.40;94969.00;;;;5095147;28;20203;-55
2022/11/04 12:01:18;;;;;;;0.70;0.70;;;12.20;68.30;11.50;94942.00;;;;5093773;28;20226;-54
2022/11/04 12:03:48;;;;;;;0.93;0.93;;;12.10;69.20;12.30;94958.00;;;;5094811;28;20428;-54
2022/11/04 12:06:38;;;;;;;0.50;0.50;;;12.60;69.10;12.60;94962.00;;;;5093519;28;20668;-54
2022/11/04 12:09:18;;;;;;;0.73;0.73;;;;;12.90;94951.00;;;;5094848;28;20619;-54
2022/11/04 12:11:59;;;;;;;0.60;0.60;;;13.00;60.40;12.80;94952.00;;;;5094461;28;20283;-55
2022/11/04 12:14:45;;;;;;;0.70;0.70;;;13.20;58.60;13.90;94953.00;;;;5094862;28;20285;-55
2022/11/04 12:17:25;;;;;;;0.50;0.50;;;;;14.00;94956.00;;;;5094511;28;20313;-54
2022/11/04 12:20:19;;;;;;;0.50;0.50;;;14.10;52.40;14.60;94927.00;;;;5094484;28;20222;-54
2022/11/04 12:22:58;;;;;;;0.50;0.50;;;15.40;50.80;15.90;94941.00;;;;5094315;28;20848;-54
2022/11/04 12:25:36;;;;;;;0.57;0.57;;;15.10;50.20;15.00;94933.00;;;;5094453;28;20263;-55
2022/11/04 12:28:21;;;;;;;1.07;0.87;;;15.30;47.00;15.20;94917.00;;;;5094398;28;20211;-54
2022/11/04 12:31:08;;;;;;;0.60;0.60;;;16.30;47.50;17.50;94914.00;;;;5094349;28;20195;-55
2022/11/04 12:33:44;;;;;;;0.77;0.77;;;17.60;41.20;18.30;94973.00;;;;5094302;28;20230;-55
2022/11/04 12:36:27;;;;;;;0.70;0.70;;;;;19.10;94914.00;;;;5094258;28;20193;-54
2022/11/04 12:39:22;;;;;;;0.60;0.60;;;18.10;37.20;17.90;94915.00;;;;5094408;28;20191;-55
2022/11/04 12:42:01;;;;;;;0.50;0.50;;;;;19.60;94970.00;;;;5094215;28;20293;-55
2022/11/04 12:44:33;;;;;;;1.27;1.20;;;;;18.00;94965.00;;;;5094263;28;20198;-56
2022/11/04 12:47:17;;;;;;;2.20;0.87;;;18.20;36.40;15.90;94972.00;;;;5076131;28;20226;-57
2022/11/04 12:50:08;;;;;;;0.70;0.70;;;17.00;37.20;14.80;95004.00;;;;5094042;28;20222;-54
2022/11/04 12:53:00;;;;;;;0.50;0.50;;;14.90;45.90;13.40;95002.00;;;;5093968;28;20219;-55
2022/11/04 12:55:52;;;;;;;0.60;0.60;;;14.00;48.60;12.70;95002.00;;;;5093996;28;20502;-55
2022/11/04 12:58:37;;;;;;;0.40;0.40;;;13.60;51.20;12.40;95014.00;;;;5093005;28;20234;-55
2022/11/04 13:01:12;;;;;;;0.50;0.50;;;13.20;53.00;12.10;95013.00;;;;5093995;28;20348;-54
2022/11/04 13:03:49;;;;;;;0.60;0.60;;;12.90;52.60;11.80;95016.00;;;;5093899;28;20341;-55